sensor_id;sensor_type;location;lat;lon;timestamp;temperature;humidity
17215;DHT22;8723;51.502;6.918;2023-12-22T00:01:54;6.10;99.90
17215;DHT22;8723;51.502;6.918;2023-12-22T00:04:21;6.10;99.90
17215;DHT22;8723;51.502;6.918;2023-12-22T00:06:49;6.20;99.90
17215;DHT22;8723;51.502;6.918;2023-12-22T00:09:18;6.00;99.90
17215;DHT22;8723;51.502;6.918;2023-12-22T00:11:48;6.00;99.90
17215;DHT22;8723;51.502;6.918;2023-12-22T00:14:14;6.00;99.90
17215;DHT22;8723;51.502;6.918;2023-12-22T00:16:41;6.00;99.90
17215;DHT22;8723;51.502;6.918;2023-12-22T00:19:08;6.00;99.90
17215;DHT22;8723;51.502;6.918;2023-12-22T00:21:35;6.00;99.90
17215;DHT22;8723;51.502;6.918;2023-12-22T00:24:03;6.00;99.90
17215;DHT22;8723;51.502;6.918;2023-12-22T00:26:30;6.00;99.90
17215;DHT22;8723;51.502;6.918;2023-12-22T00:28:58;6.00;99.90
17215;DHT22;8723;51.502;6.918;2023-12-22T00:31:25;6.10;99.90
17215;DHT22;8723;51.502;6.918;2023-12-22T00:33:52;6.20;99.90
17215;DHT22;8723;51.502;6.918;2023-12-22T00:36:19;6.10;99.90
17215;DHT22;8723;51.502;6.918;2023-12-22T00:38:49;6.20;99.90
17215;DHT22;8723;51.502;6.918;2023-12-22T00:41:16;6.10;99.90
17215;DHT22;8723;51.502;6.918;2023-12-22T00:43:43;6.20;99.90
17215;DHT22;8723;51.502;6.918;2023-12-22T00:46:12;6.20;99.90
17215;DHT22;8723;51.502;6.918;2023-12-22T00:48:39;6.20;99.90
17215;DHT22;8723;51.502;6.918;2023-12-22T00:51:06;6.20;99.90
17215;DHT22;8723;51.502;6.918;2023-12-22T00:53:33;6.20;99.90
17215;DHT22;8723;51.502;6.918;2023-12-22T00:56:00;6.20;99.90
17215;DHT22;8723;51.502;6.918;2023-12-22T00:58:28;6.20;99.90
17215;DHT22;8723;51.502;6.918;2023-12-22T01:00:55;6.30;99.90
17215;DHT22;8723;51.502;6.918;2023-12-22T01:03:23;6.30;99.90
17215;DHT22;8723;51.502;6.918;2023-12-22T01:05:50;6.30;99.90
17215;DHT22;8723;51.502;6.918;2023-12-22T01:08:17;6.30;99.90
17215;DHT22;8723;51.502;6.918;2023-12-22T01:10:44;6.30;99.90
17215;DHT22;8723;51.502;6.918;2023-12-22T01:13:11;6.40;99.90
17215;DHT22;8723;51.502;6.918;2023-12-22T01:15:37;6.40;99.90
17215;DHT22;8723;51.502;6.918;2023-12-22T01:18:04;6.40;99.90
17215;DHT22;8723;51.502;6.918;2023-12-22T01:20:33;6.40;99.90
17215;DHT22;8723;51.502;6.918;2023-12-22T01:22:59;6.40;99.90
17215;DHT22;8723;51.502;6.918;2023-12-22T01:25:26;6.30;99.90
17215;DHT22;8723;51.502;6.918;2023-12-22T01:27:53;6.20;99.90
17215;DHT22;8723;51.502;6.918;2023-12-22T01:30:20;6.00;99.90
17215;DHT22;8723;51.502;6.918;2023-12-22T01:32:48;5.90;99.90
17215;DHT22;8723;51.502;6.918;2023-12-22T01:35:15;5.80;99.90
17215;DHT22;8723;51.502;6.918;2023-12-22T01:37:43;5.70;99.90
17215;DHT22;8723;51.502;6.918;2023-12-22T01:40:10;5.60;99.90
17215;DHT22;8723;51.502;6.918;2023-12-22T01:42:38;5.50;99.90
17215;DHT22;8723;51.502;6.918;2023-12-22T01:45:06;5.40;99.90
17215;DHT22;8723;51.502;6.918;2023-12-22T01:47:34;5.50;99.90
17215;DHT22;8723;51.502;6.918;2023-12-22T01:50:02;5.50;99.90
17215;DHT22;8723;51.502;6.918;2023-12-22T01:52:29;5.50;99.90
17215;DHT22;8723;51.502;6.918;2023-12-22T01:54:58;5.60;99.90
17215;DHT22;8723;51.502;6.918;2023-12-22T01:57:25;5.50;99.90
17215;DHT22;8723;51.502;6.918;2023-12-22T01:59:52;5.60;99.90
17215;DHT22;8723;51.502;6.918;2023-12-22T02:02:19;5.60;99.90
17215;DHT22;8723;51.502;6.918;2023-12-22T02:07:21;5.70;99.90
17215;DHT22;8723;51.502;6.918;2023-12-22T02:09:48;5.70;99.90
17215;DHT22;8723;51.502;6.918;2023-12-22T02:12:16;5.80;99.90
17215;DHT22;8723;51.502;6.918;2023-12-22T02:14:43;5.80;99.90
17215;DHT22;8723;51.502;6.918;2023-12-22T02:17:15;5.90;99.90
17215;DHT22;8723;51.502;6.918;2023-12-22T02:19:48;5.80;99.90
17215;DHT22;8723;51.502;6.918;2023-12-22T02:22:15;5.80;99.90
17215;DHT22;8723;51.502;6.918;2023-12-22T02:24:44;5.80;99.90
17215;DHT22;8723;51.502;6.918;2023-12-22T02:27:20;5.80;99.90
17215;DHT22;8723;51.502;6.918;2023-12-22T02:29:54;5.70;99.90
17215;DHT22;8723;51.502;6.918;2023-12-22T02:32:31;5.70;99.90
17215;DHT22;8723;51.502;6.918;2023-12-22T02:35:01;5.70;99.90
17215;DHT22;8723;51.502;6.918;2023-12-22T02:37:31;5.60;99.90
17215;DHT22;8723;51.502;6.918;2023-12-22T02:40:01;5.70;99.90
17215;DHT22;8723;51.502;6.918;2023-12-22T02:42:30;5.60;99.90
17215;DHT22;8723;51.502;6.918;2023-12-22T02:45:00;5.60;99.90
17215;DHT22;8723;51.502;6.918;2023-12-22T03:08:11;5.50;99.90
17215;DHT22;8723;51.502;6.918;2023-12-22T03:10:41;5.50;99.90
17215;DHT22;8723;51.502;6.918;2023-12-22T03:13:11;5.50;99.90
17215;DHT22;8723;51.502;6.918;2023-12-22T03:15:41;5.40;99.90
17215;DHT22;8723;51.502;6.918;2023-12-22T03:18:11;5.50;99.90
17215;DHT22;8723;51.502;6.918;2023-12-22T03:20:41;5.50;99.90
17215;DHT22;8723;51.502;6.918;2023-12-22T03:23:14;5.50;99.90
17215;DHT22;8723;51.502;6.918;2023-12-22T03:25:44;5.60;99.90
17215;DHT22;8723;51.502;6.918;2023-12-22T03:28:14;5.60;99.90
17215;DHT22;8723;51.502;6.918;2023-12-22T03:30:44;5.60;99.90
17215;DHT22;8723;51.502;6.918;2023-12-22T03:33:15;5.60;99.90
17215;DHT22;8723;51.502;6.918;2023-12-22T03:35:45;5.70;99.90
17215;DHT22;8723;51.502;6.918;2023-12-22T03:38:17;5.70;99.90
17215;DHT22;8723;51.502;6.918;2023-12-22T03:40:47;5.70;99.90
17215;DHT22;8723;51.502;6.918;2023-12-22T03:43:17;5.70;99.90
17215;DHT22;8723;51.502;6.918;2023-12-22T03:45:47;5.70;99.90
17215;DHT22;8723;51.502;6.918;2023-12-22T03:48:20;5.70;99.90
17215;DHT22;8723;51.502;6.918;2023-12-22T03:50:50;5.80;99.90
17215;DHT22;8723;51.502;6.918;2023-12-22T03:53:21;5.70;99.90
17215;DHT22;8723;51.502;6.918;2023-12-22T03:55:50;5.80;99.90
17215;DHT22;8723;51.502;6.918;2023-12-22T03:58:18;5.80;99.90
17215;DHT22;8723;51.502;6.918;2023-12-22T04:00:45;5.80;99.90
17215;DHT22;8723;51.502;6.918;2023-12-22T04:03:14;5.80;99.90
17215;DHT22;8723;51.502;6.918;2023-12-22T04:05:44;5.80;99.90
17215;DHT22;8723;51.502;6.918;2023-12-22T04:08:14;5.80;99.90
17215;DHT22;8723;51.502;6.918;2023-12-22T04:10:48;5.80;99.90
17215;DHT22;8723;51.502;6.918;2023-12-22T04:13:17;5.80;99.90
17215;DHT22;8723;51.502;6.918;2023-12-22T04:15:45;5.90;99.90
17215;DHT22;8723;51.502;6.918;2023-12-22T04:18:12;5.90;99.90
17215;DHT22;8723;51.502;6.918;2023-12-22T04:20:39;5.90;99.90
17215;DHT22;8723;51.502;6.918;2023-12-22T04:23:06;5.90;99.90
17215;DHT22;8723;51.502;6.918;2023-12-22T04:25:32;5.90;99.90
17215;DHT22;8723;51.502;6.918;2023-12-22T04:28:00;5.90;99.90
17215;DHT22;8723;51.502;6.918;2023-12-22T04:30:27;5.90;99.90
17215;DHT22;8723;51.502;6.918;2023-12-22T04:32:54;5.90;99.90
17215;DHT22;8723;51.502;6.918;2023-12-22T04:35:21;5.90;99.90
17215;DHT22;8723;51.502;6.918;2023-12-22T04:37:48;5.80;99.90
17215;DHT22;8723;51.502;6.918;2023-12-22T04:40:15;5.80;99.90
17215;DHT22;8723;51.502;6.918;2023-12-22T04:42:42;5.80;99.90
17215;DHT22;8723;51.502;6.918;2023-12-22T04:45:11;5.80;99.90
17215;DHT22;8723;51.502;6.918;2023-12-22T04:47:38;5.70;99.90
17215;DHT22;8723;51.502;6.918;2023-12-22T04:50:05;5.70;99.90
17215;DHT22;8723;51.502;6.918;2023-12-22T04:52:32;5.60;99.90
17215;DHT22;8723;51.502;6.918;2023-12-22T04:54:59;5.50;99.90
17215;DHT22;8723;51.502;6.918;2023-12-22T04:57:26;5.40;99.90
17215;DHT22;8723;51.502;6.918;2023-12-22T04:59:53;5.40;99.90
17215;DHT22;8723;51.502;6.918;2023-12-22T05:02:22;5.40;99.90
17215;DHT22;8723;51.502;6.918;2023-12-22T05:04:49;5.40;99.90
17215;DHT22;8723;51.502;6.918;2023-12-22T05:07:16;5.40;99.90
17215;DHT22;8723;51.502;6.918;2023-12-22T05:09:43;5.30;99.90
17215;DHT22;8723;51.502;6.918;2023-12-22T05:12:10;5.30;99.90
17215;DHT22;8723;51.502;6.918;2023-12-22T05:14:37;5.30;99.90
17215;DHT22;8723;51.502;6.918;2023-12-22T05:17:06;5.30;99.90
17215;DHT22;8723;51.502;6.918;2023-12-22T05:19:34;5.30;99.90
17215;DHT22;8723;51.502;6.918;2023-12-22T05:22:01;5.30;99.90
17215;DHT22;8723;51.502;6.918;2023-12-22T05:24:28;5.30;99.90
17215;DHT22;8723;51.502;6.918;2023-12-22T05:26:55;5.40;99.90
17215;DHT22;8723;51.502;6.918;2023-12-22T05:29:22;5.40;99.90
17215;DHT22;8723;51.502;6.918;2023-12-22T05:31:49;5.40;99.90
17215;DHT22;8723;51.502;6.918;2023-12-22T05:34:15;5.40;99.90
17215;DHT22;8723;51.502;6.918;2023-12-22T05:36:44;5.40;99.90
17215;DHT22;8723;51.502;6.918;2023-12-22T05:39:11;5.40;99.90
17215;DHT22;8723;51.502;6.918;2023-12-22T05:41:38;5.50;99.90
17215;DHT22;8723;51.502;6.918;2023-12-22T05:44:05;5.50;99.90
17215;DHT22;8723;51.502;6.918;2023-12-22T05:46:36;5.50;99.90
17215;DHT22;8723;51.502;6.918;2023-12-22T05:49:04;5.50;99.90
17215;DHT22;8723;51.502;6.918;2023-12-22T05:51:36;5.50;99.90
17215;DHT22;8723;51.502;6.918;2023-12-22T05:54:05;5.50;99.90
17215;DHT22;8723;51.502;6.918;2023-12-22T05:56:32;5.50;99.90
17215;DHT22;8723;51.502;6.918;2023-12-22T05:58:59;5.50;99.90
17215;DHT22;8723;51.502;6.918;2023-12-22T06:01:27;5.50;99.90
17215;DHT22;8723;51.502;6.918;2023-12-22T06:03:53;5.50;99.90
17215;DHT22;8723;51.502;6.918;2023-12-22T06:06:20;5.50;99.90
17215;DHT22;8723;51.502;6.918;2023-12-22T06:08:47;5.50;99.90
17215;DHT22;8723;51.502;6.918;2023-12-22T06:11:16;5.50;99.90
17215;DHT22;8723;51.502;6.918;2023-12-22T06:13:43;5.50;99.90
17215;DHT22;8723;51.502;6.918;2023-12-22T06:16:13;5.50;99.90
17215;DHT22;8723;51.502;6.918;2023-12-22T06:18:40;5.50;99.90
17215;DHT22;8723;51.502;6.918;2023-12-22T06:21:09;5.50;99.90
17215;DHT22;8723;51.502;6.918;2023-12-22T06:23:36;5.50;99.90
17215;DHT22;8723;51.502;6.918;2023-12-22T06:26:08;5.50;99.90
17215;DHT22;8723;51.502;6.918;2023-12-22T06:28:37;5.40;99.90
17215;DHT22;8723;51.502;6.918;2023-12-22T06:31:05;5.40;99.90
17215;DHT22;8723;51.502;6.918;2023-12-22T06:33:32;5.50;99.90
17215;DHT22;8723;51.502;6.918;2023-12-22T06:35:59;5.50;99.90
17215;DHT22;8723;51.502;6.918;2023-12-22T06:38:26;5.50;99.90
17215;DHT22;8723;51.502;6.918;2023-12-22T06:40:53;5.50;99.90
17215;DHT22;8723;51.502;6.918;2023-12-22T06:43:20;5.50;99.90
17215;DHT22;8723;51.502;6.918;2023-12-22T06:45:49;5.50;99.90
17215;DHT22;8723;51.502;6.918;2023-12-22T06:48:20;5.50;99.90
17215;DHT22;8723;51.502;6.918;2023-12-22T06:50:47;5.60;99.90
17215;DHT22;8723;51.502;6.918;2023-12-22T06:53:14;5.60;99.90
17215;DHT22;8723;51.502;6.918;2023-12-22T06:55:41;5.60;99.90
17215;DHT22;8723;51.502;6.918;2023-12-22T06:58:08;5.70;99.90
17215;DHT22;8723;51.502;6.918;2023-12-22T07:00:34;5.70;99.90
17215;DHT22;8723;51.502;6.918;2023-12-22T07:03:05;5.70;99.90
17215;DHT22;8723;51.502;6.918;2023-12-22T07:05:33;5.80;99.90
17215;DHT22;8723;51.502;6.918;2023-12-22T07:08:04;5.80;99.90
17215;DHT22;8723;51.502;6.918;2023-12-22T07:10:31;5.90;99.90
17215;DHT22;8723;51.502;6.918;2023-12-22T07:12:58;5.90;99.90
17215;DHT22;8723;51.502;6.918;2023-12-22T07:15:25;5.80;99.90
17215;DHT22;8723;51.502;6.918;2023-12-22T07:17:54;5.90;99.90
17215;DHT22;8723;51.502;6.918;2023-12-22T07:20:22;5.90;99.90
17215;DHT22;8723;51.502;6.918;2023-12-22T07:22:49;5.90;99.90
17215;DHT22;8723;51.502;6.918;2023-12-22T07:25:16;5.80;99.90
17215;DHT22;8723;51.502;6.918;2023-12-22T07:27:45;5.90;99.90
17215;DHT22;8723;51.502;6.918;2023-12-22T07:30:13;5.90;99.90
17215;DHT22;8723;51.502;6.918;2023-12-22T07:32:43;6.00;99.90
17215;DHT22;8723;51.502;6.918;2023-12-22T07:35:13;6.00;99.90
17215;DHT22;8723;51.502;6.918;2023-12-22T07:37:41;6.10;99.90
17215;DHT22;8723;51.502;6.918;2023-12-22T07:40:09;6.20;99.90
17215;DHT22;8723;51.502;6.918;2023-12-22T07:42:36;6.20;99.90
17215;DHT22;8723;51.502;6.918;2023-12-22T07:45:05;6.30;99.90
17215;DHT22;8723;51.502;6.918;2023-12-22T07:47:33;6.40;99.90
17215;DHT22;8723;51.502;6.918;2023-12-22T07:50:02;6.40;99.90
17215;DHT22;8723;51.502;6.918;2023-12-22T07:52:29;6.50;99.90
17215;DHT22;8723;51.502;6.918;2023-12-22T07:54:57;6.50;99.90
17215;DHT22;8723;51.502;6.918;2023-12-22T07:57:24;6.50;99.90
17215;DHT22;8723;51.502;6.918;2023-12-22T07:59:51;6.60;99.90
17215;DHT22;8723;51.502;6.918;2023-12-22T08:02:18;6.60;99.90
17215;DHT22;8723;51.502;6.918;2023-12-22T08:04:45;6.70;99.90
17215;DHT22;8723;51.502;6.918;2023-12-22T08:07:12;6.80;99.90
17215;DHT22;8723;51.502;6.918;2023-12-22T08:09:39;6.90;99.90
17215;DHT22;8723;51.502;6.918;2023-12-22T08:12:08;6.90;99.90
17215;DHT22;8723;51.502;6.918;2023-12-22T08:14:34;7.00;99.90
17215;DHT22;8723;51.502;6.918;2023-12-22T08:17:01;6.90;99.90
17215;DHT22;8723;51.502;6.918;2023-12-22T08:19:28;7.00;99.90
17215;DHT22;8723;51.502;6.918;2023-12-22T08:21:55;7.00;99.90
17215;DHT22;8723;51.502;6.918;2023-12-22T08:24:22;7.00;99.90
17215;DHT22;8723;51.502;6.918;2023-12-22T08:26:49;7.10;99.90
17215;DHT22;8723;51.502;6.918;2023-12-22T08:29:17;7.10;99.90
17215;DHT22;8723;51.502;6.918;2023-12-22T08:31:45;7.10;99.90
17215;DHT22;8723;51.502;6.918;2023-12-22T08:34:11;7.20;99.90
17215;DHT22;8723;51.502;6.918;2023-12-22T08:36:38;7.20;99.90
17215;DHT22;8723;51.502;6.918;2023-12-22T08:39:05;7.30;99.90
17215;DHT22;8723;51.502;6.918;2023-12-22T08:41:33;7.30;99.90
17215;DHT22;8723;51.502;6.918;2023-12-22T08:44:02;7.30;99.90
17215;DHT22;8723;51.502;6.918;2023-12-22T08:46:30;7.30;99.90
17215;DHT22;8723;51.502;6.918;2023-12-22T08:48:57;7.30;99.90
17215;DHT22;8723;51.502;6.918;2023-12-22T08:51:25;7.40;99.90
17215;DHT22;8723;51.502;6.918;2023-12-22T08:53:53;7.40;99.90
17215;DHT22;8723;51.502;6.918;2023-12-22T08:56:20;7.50;99.90
17215;DHT22;8723;51.502;6.918;2023-12-22T08:58:47;7.60;99.90
17215;DHT22;8723;51.502;6.918;2023-12-22T09:01:17;7.60;99.90
17215;DHT22;8723;51.502;6.918;2023-12-22T09:03:46;7.60;99.90
17215;DHT22;8723;51.502;6.918;2023-12-22T09:06:14;7.60;99.90
17215;DHT22;8723;51.502;6.918;2023-12-22T09:08:41;7.60;99.90
17215;DHT22;8723;51.502;6.918;2023-12-22T09:11:11;7.40;99.90
17215;DHT22;8723;51.502;6.918;2023-12-22T09:13:38;7.20;99.90
17215;DHT22;8723;51.502;6.918;2023-12-22T09:16:05;7.10;99.90
17215;DHT22;8723;51.502;6.918;2023-12-22T09:18:32;6.90;99.90
17215;DHT22;8723;51.502;6.918;2023-12-22T09:21:00;6.80;99.90
17215;DHT22;8723;51.502;6.918;2023-12-22T09:23:30;6.70;99.90
17215;DHT22;8723;51.502;6.918;2023-12-22T09:25:57;6.60;99.90
17215;DHT22;8723;51.502;6.918;2023-12-22T09:28:24;6.60;99.90
17215;DHT22;8723;51.502;6.918;2023-12-22T09:30:51;6.50;99.90
17215;DHT22;8723;51.502;6.918;2023-12-22T09:33:18;6.50;99.90
17215;DHT22;8723;51.502;6.918;2023-12-22T09:35:45;6.50;99.90
17215;DHT22;8723;51.502;6.918;2023-12-22T09:38:14;6.50;99.90
17215;DHT22;8723;51.502;6.918;2023-12-22T09:40:41;6.50;99.90
17215;DHT22;8723;51.502;6.918;2023-12-22T09:43:08;6.50;99.90
17215;DHT22;8723;51.502;6.918;2023-12-22T09:45:36;6.50;99.90
17215;DHT22;8723;51.502;6.918;2023-12-22T09:48:05;6.50;99.90
17215;DHT22;8723;51.502;6.918;2023-12-22T09:50:33;6.50;99.90
17215;DHT22;8723;51.502;6.918;2023-12-22T09:53:03;6.50;99.90
17215;DHT22;8723;51.502;6.918;2023-12-22T09:55:34;6.50;99.90
17215;DHT22;8723;51.502;6.918;2023-12-22T09:58:02;6.50;99.90
17215;DHT22;8723;51.502;6.918;2023-12-22T10:00:31;6.60;99.90
17215;DHT22;8723;51.502;6.918;2023-12-22T10:02:59;6.60;99.90
17215;DHT22;8723;51.502;6.918;2023-12-22T10:05:26;6.60;99.90
17215;DHT22;8723;51.502;6.918;2023-12-22T10:07:53;6.70;99.90
17215;DHT22;8723;51.502;6.918;2023-12-22T10:10:21;6.70;99.90
17215;DHT22;8723;51.502;6.918;2023-12-22T10:12:50;6.80;99.90
17215;DHT22;8723;51.502;6.918;2023-12-22T10:15:18;6.80;99.90
17215;DHT22;8723;51.502;6.918;2023-12-22T10:17:49;6.90;99.90
17215;DHT22;8723;51.502;6.918;2023-12-22T10:20:16;6.90;99.90
17215;DHT22;8723;51.502;6.918;2023-12-22T10:22:43;7.00;99.90
17215;DHT22;8723;51.502;6.918;2023-12-22T10:25:14;7.10;99.90
17215;DHT22;8723;51.502;6.918;2023-12-22T10:27:42;7.10;99.90
17215;DHT22;8723;51.502;6.918;2023-12-22T10:30:11;7.20;99.90
17215;DHT22;8723;51.502;6.918;2023-12-22T10:32:40;7.30;99.90
17215;DHT22;8723;51.502;6.918;2023-12-22T10:35:08;7.30;99.90
17215;DHT22;8723;51.502;6.918;2023-12-22T10:37:35;7.40;99.90
17215;DHT22;8723;51.502;6.918;2023-12-22T10:40:04;7.40;99.90
17215;DHT22;8723;51.502;6.918;2023-12-22T10:42:32;7.50;99.90
17215;DHT22;8723;51.502;6.918;2023-12-22T10:44:59;7.50;99.90
17215;DHT22;8723;51.502;6.918;2023-12-22T10:47:28;7.60;99.90
17215;DHT22;8723;51.502;6.918;2023-12-22T10:49:55;7.60;99.90
17215;DHT22;8723;51.502;6.918;2023-12-22T10:52:22;7.60;99.90
17215;DHT22;8723;51.502;6.918;2023-12-22T10:54:50;7.60;99.90
17215;DHT22;8723;51.502;6.918;2023-12-22T10:57:18;7.60;99.90
17215;DHT22;8723;51.502;6.918;2023-12-22T10:59:46;7.50;99.90
17215;DHT22;8723;51.502;6.918;2023-12-22T11:02:16;7.40;99.90
17215;DHT22;8723;51.502;6.918;2023-12-22T11:04:50;7.30;99.90
17215;DHT22;8723;51.502;6.918;2023-12-22T11:07:24;7.30;99.90
17215;DHT22;8723;51.502;6.918;2023-12-22T11:09:51;7.20;99.90
17215;DHT22;8723;51.502;6.918;2023-12-22T11:12:21;7.20;99.90
17215;DHT22;8723;51.502;6.918;2023-12-22T11:14:48;7.20;99.90
17215;DHT22;8723;51.502;6.918;2023-12-22T11:17:19;7.10;99.90
17215;DHT22;8723;51.502;6.918;2023-12-22T11:19:49;7.10;99.90
17215;DHT22;8723;51.502;6.918;2023-12-22T11:22:17;7.10;99.90
17215;DHT22;8723;51.502;6.918;2023-12-22T11:24:46;7.20;99.90
17215;DHT22;8723;51.502;6.918;2023-12-22T11:27:13;7.20;99.90
17215;DHT22;8723;51.502;6.918;2023-12-22T11:29:42;7.30;99.90
17215;DHT22;8723;51.502;6.918;2023-12-22T11:32:11;7.30;99.90
17215;DHT22;8723;51.502;6.918;2023-12-22T11:34:42;7.40;99.90
17215;DHT22;8723;51.502;6.918;2023-12-22T11:37:11;7.30;99.90
17215;DHT22;8723;51.502;6.918;2023-12-22T11:39:39;7.40;99.90
17215;DHT22;8723;51.502;6.918;2023-12-22T11:42:08;7.40;99.90
17215;DHT22;8723;51.502;6.918;2023-12-22T11:44:36;7.40;99.90
17215;DHT22;8723;51.502;6.918;2023-12-22T11:47:04;7.50;99.90
17215;DHT22;8723;51.502;6.918;2023-12-22T11:49:32;7.50;99.90
17215;DHT22;8723;51.502;6.918;2023-12-22T11:52:00;7.70;99.90
17215;DHT22;8723;51.502;6.918;2023-12-22T11:57:33;7.90;99.90
17215;DHT22;8723;51.502;6.918;2023-12-22T12:00:06;8.00;99.90
17215;DHT22;8723;51.502;6.918;2023-12-22T12:02:33;8.20;99.90
17215;DHT22;8723;51.502;6.918;2023-12-22T12:05:02;8.30;99.90
17215;DHT22;8723;51.502;6.918;2023-12-22T12:07:37;8.30;99.90
17215;DHT22;8723;51.502;6.918;2023-12-22T12:10:08;8.40;99.90
17215;DHT22;8723;51.502;6.918;2023-12-22T12:12:35;8.40;99.90
17215;DHT22;8723;51.502;6.918;2023-12-22T12:15:07;8.50;99.90
17215;DHT22;8723;51.502;6.918;2023-12-22T12:17:38;8.50;99.90
17215;DHT22;8723;51.502;6.918;2023-12-22T12:20:07;8.60;99.90
17215;DHT22;8723;51.502;6.918;2023-12-22T12:22:35;8.60;99.90
17215;DHT22;8723;51.502;6.918;2023-12-22T12:25:08;8.60;99.90
17215;DHT22;8723;51.502;6.918;2023-12-22T12:27:37;8.70;99.90
17215;DHT22;8723;51.502;6.918;2023-12-22T12:30:13;8.70;99.90
17215;DHT22;8723;51.502;6.918;2023-12-22T12:32:43;8.70;99.90
17215;DHT22;8723;51.502;6.918;2023-12-22T12:35:11;8.80;99.90
17215;DHT22;8723;51.502;6.918;2023-12-22T12:37:38;8.70;99.90
17215;DHT22;8723;51.502;6.918;2023-12-22T12:40:08;8.80;99.90
17215;DHT22;8723;51.502;6.918;2023-12-22T12:42:38;8.70;99.90
17215;DHT22;8723;51.502;6.918;2023-12-22T12:45:06;8.70;99.90
17215;DHT22;8723;51.502;6.918;2023-12-22T12:47:33;8.70;99.90
17215;DHT22;8723;51.502;6.918;2023-12-22T12:50:01;8.70;99.90
17215;DHT22;8723;51.502;6.918;2023-12-22T12:52:28;8.60;99.90
17215;DHT22;8723;51.502;6.918;2023-12-22T12:54:55;8.60;99.90
17215;DHT22;8723;51.502;6.918;2023-12-22T12:57:25;8.60;99.90
17215;DHT22;8723;51.502;6.918;2023-12-22T12:59:52;8.60;99.90
17215;DHT22;8723;51.502;6.918;2023-12-22T13:02:19;8.50;99.90
17215;DHT22;8723;51.502;6.918;2023-12-22T13:04:48;8.60;99.90
17215;DHT22;8723;51.502;6.918;2023-12-22T13:07:23;8.60;99.90
17215;DHT22;8723;51.502;6.918;2023-12-22T13:09:51;8.60;99.90
17215;DHT22;8723;51.502;6.918;2023-12-22T13:12:19;8.60;99.90
17215;DHT22;8723;51.502;6.918;2023-12-22T13:14:48;8.60;99.90
17215;DHT22;8723;51.502;6.918;2023-12-22T13:17:16;8.60;99.90
17215;DHT22;8723;51.502;6.918;2023-12-22T13:19:44;8.60;99.90
17215;DHT22;8723;51.502;6.918;2023-12-22T13:22:11;8.60;99.90
17215;DHT22;8723;51.502;6.918;2023-12-22T13:24:38;8.50;99.90
17215;DHT22;8723;51.502;6.918;2023-12-22T13:27:05;8.50;99.90
17215;DHT22;8723;51.502;6.918;2023-12-22T13:29:42;8.50;99.90
17215;DHT22;8723;51.502;6.918;2023-12-22T13:32:16;8.60;99.90
17215;DHT22;8723;51.502;6.918;2023-12-22T13:34:48;8.60;99.90
17215;DHT22;8723;51.502;6.918;2023-12-22T13:37:16;8.50;99.90
17215;DHT22;8723;51.502;6.918;2023-12-22T13:39:45;8.50;99.90
17215;DHT22;8723;51.502;6.918;2023-12-22T13:42:16;8.50;99.90
17215;DHT22;8723;51.502;6.918;2023-12-22T13:44:44;8.60;99.90
17215;DHT22;8723;51.502;6.918;2023-12-22T13:47:13;8.60;99.90
17215;DHT22;8723;51.502;6.918;2023-12-22T13:49:41;8.70;99.90
17215;DHT22;8723;51.502;6.918;2023-12-22T13:52:16;8.80;99.90
17215;DHT22;8723;51.502;6.918;2023-12-22T13:54:50;8.90;99.90
17215;DHT22;8723;51.502;6.918;2023-12-22T13:57:20;8.90;99.90
17215;DHT22;8723;51.502;6.918;2023-12-22T13:59:47;8.80;99.90
17215;DHT22;8723;51.502;6.918;2023-12-22T14:02:14;8.90;99.90
17215;DHT22;8723;51.502;6.918;2023-12-22T14:04:43;8.90;99.90
17215;DHT22;8723;51.502;6.918;2023-12-22T14:07:10;8.90;99.90
17215;DHT22;8723;51.502;6.918;2023-12-22T14:09:37;8.90;99.90
17215;DHT22;8723;51.502;6.918;2023-12-22T14:12:04;8.90;99.90
17215;DHT22;8723;51.502;6.918;2023-12-22T14:14:31;8.90;99.90
17215;DHT22;8723;51.502;6.918;2023-12-22T14:16:58;8.90;99.90
17215;DHT22;8723;51.502;6.918;2023-12-22T14:19:25;8.90;99.90
17215;DHT22;8723;51.502;6.918;2023-12-22T14:21:54;9.00;99.90
17215;DHT22;8723;51.502;6.918;2023-12-22T14:24:20;9.00;99.90
17215;DHT22;8723;51.502;6.918;2023-12-22T14:26:54;9.00;99.90
17215;DHT22;8723;51.502;6.918;2023-12-22T14:29:21;8.90;99.90
17215;DHT22;8723;51.502;6.918;2023-12-22T14:31:49;8.90;99.90
17215;DHT22;8723;51.502;6.918;2023-12-22T14:34:16;8.90;99.90
17215;DHT22;8723;51.502;6.918;2023-12-22T14:36:43;8.90;99.90
17215;DHT22;8723;51.502;6.918;2023-12-22T14:39:11;8.90;99.90
17215;DHT22;8723;51.502;6.918;2023-12-22T14:41:39;9.00;99.90
17215;DHT22;8723;51.502;6.918;2023-12-22T14:44:07;9.00;99.90
17215;DHT22;8723;51.502;6.918;2023-12-22T14:46:37;9.10;99.90
17215;DHT22;8723;51.502;6.918;2023-12-22T14:49:05;9.00;99.90
17215;DHT22;8723;51.502;6.918;2023-12-22T14:51:35;9.10;99.90
17215;DHT22;8723;51.502;6.918;2023-12-22T14:54:03;9.10;99.90
17215;DHT22;8723;51.502;6.918;2023-12-22T14:56:31;9.10;99.90
17215;DHT22;8723;51.502;6.918;2023-12-22T14:58:58;9.10;99.90
17215;DHT22;8723;51.502;6.918;2023-12-22T15:01:25;9.10;99.90
17215;DHT22;8723;51.502;6.918;2023-12-22T15:03:52;9.10;99.90
17215;DHT22;8723;51.502;6.918;2023-12-22T15:06:19;9.10;99.90
17215;DHT22;8723;51.502;6.918;2023-12-22T15:08:46;9.10;99.90
17215;DHT22;8723;51.502;6.918;2023-12-22T15:11:13;9.10;99.90
17215;DHT22;8723;51.502;6.918;2023-12-22T15:13:41;9.00;99.90
17215;DHT22;8723;51.502;6.918;2023-12-22T15:16:09;9.00;99.90
17215;DHT22;8723;51.502;6.918;2023-12-22T15:18:36;9.00;99.90
17215;DHT22;8723;51.502;6.918;2023-12-22T15:21:03;9.00;99.90
17215;DHT22;8723;51.502;6.918;2023-12-22T15:23:30;8.90;99.90
17215;DHT22;8723;51.502;6.918;2023-12-22T15:25:57;8.90;99.90
17215;DHT22;8723;51.502;6.918;2023-12-22T15:28:24;8.80;99.90
17215;DHT22;8723;51.502;6.918;2023-12-22T15:30:52;8.80;99.90
17215;DHT22;8723;51.502;6.918;2023-12-22T15:33:19;8.90;99.90
17215;DHT22;8723;51.502;6.918;2023-12-22T15:35:46;8.90;99.90
17215;DHT22;8723;51.502;6.918;2023-12-22T15:38:14;8.90;99.90
17215;DHT22;8723;51.502;6.918;2023-12-22T15:40:41;8.90;99.90
17215;DHT22;8723;51.502;6.918;2023-12-22T15:43:08;8.90;99.90
17215;DHT22;8723;51.502;6.918;2023-12-22T15:45:34;8.90;99.90
17215;DHT22;8723;51.502;6.918;2023-12-22T15:48:03;8.90;99.90
17215;DHT22;8723;51.502;6.918;2023-12-22T15:50:30;9.00;99.90
17215;DHT22;8723;51.502;6.918;2023-12-22T15:52:57;8.90;99.90
17215;DHT22;8723;51.502;6.918;2023-12-22T15:55:23;8.90;99.90
17215;DHT22;8723;51.502;6.918;2023-12-22T15:57:50;8.90;99.90
17215;DHT22;8723;51.502;6.918;2023-12-22T16:00:18;8.90;99.90
17215;DHT22;8723;51.502;6.918;2023-12-22T16:02:45;9.00;99.90
17215;DHT22;8723;51.502;6.918;2023-12-22T16:05:14;9.00;99.90
17215;DHT22;8723;51.502;6.918;2023-12-22T16:07:41;9.00;99.90
17215;DHT22;8723;51.502;6.918;2023-12-22T16:10:08;9.00;99.90
17215;DHT22;8723;51.502;6.918;2023-12-22T16:12:36;8.90;99.90
17215;DHT22;8723;51.502;6.918;2023-12-22T16:15:07;8.90;99.90
17215;DHT22;8723;51.502;6.918;2023-12-22T16:17:34;8.90;99.90
17215;DHT22;8723;51.502;6.918;2023-12-22T16:20:01;8.90;99.90
17215;DHT22;8723;51.502;6.918;2023-12-22T16:22:29;8.90;99.90
17215;DHT22;8723;51.502;6.918;2023-12-22T16:24:57;8.80;99.90
17215;DHT22;8723;51.502;6.918;2023-12-22T16:27:31;8.70;99.90
17215;DHT22;8723;51.502;6.918;2023-12-22T16:29:59;8.70;99.90
17215;DHT22;8723;51.502;6.918;2023-12-22T16:32:29;8.70;99.90
17215;DHT22;8723;51.502;6.918;2023-12-22T16:34:56;8.70;99.90